createdAt,value
2023-05-20T00:00:00.610Z,14.3
2023-05-20T00:10:00.581Z,14.5
2023-05-20T00:20:00.576Z,15.3
2023-05-20T00:30:00.570Z,15.5
2023-05-20T00:40:00.588Z,15.4
2023-05-20T00:50:00.581Z,15.0
2023-05-20T01:00:00.579Z,14.4
2023-05-20T01:10:00.570Z,13.9
2023-05-20T01:20:00.580Z,13.4
2023-05-20T01:30:00.609Z,13.2
2023-05-20T01:40:00.616Z,13.1
2023-05-20T01:50:00.589Z,12.9
2023-05-20T02:00:00.608Z,12.7
2023-05-20T02:10:00.586Z,12.7
2023-05-20T02:20:00.640Z,13.2
2023-05-20T02:30:00.580Z,13.7
2023-05-20T02:40:00.653Z,14.0
2023-05-20T02:50:00.612Z,14.1
2023-05-20T03:00:00.661Z,13.6
2023-05-20T03:10:00.564Z,13.5
2023-05-20T03:20:00.566Z,13.9
2023-05-20T03:30:00.553Z,14.2
2023-05-20T03:40:00.596Z,14.4
2023-05-20T03:50:00.553Z,14.2
2023-05-20T04:00:00.619Z,14.1
2023-05-20T04:10:01.098Z,13.7
2023-05-20T04:20:00.555Z,13.8
2023-05-20T04:30:00.499Z,14.7
2023-05-20T04:50:00.282Z,15.3
2023-05-20T05:00:00.283Z,15.5
2023-05-20T05:10:00.263Z,16.1
2023-05-20T05:20:00.317Z,17.3
2023-05-20T05:30:00.372Z,18.4
2023-05-20T05:40:00.267Z,19.3
2023-05-20T05:50:00.502Z,20.0
2023-05-20T06:00:00.269Z,21.2
2023-05-20T06:10:00.270Z,22.3
2023-05-20T06:20:00.254Z,22.0
2023-05-20T06:30:00.317Z,22.7
2023-05-20T06:40:00.276Z,22.5
2023-05-20T06:50:00.238Z,23.2
2023-05-20T07:00:00.268Z,23.3
2023-05-20T07:10:00.264Z,24.2
2023-05-20T07:20:00.286Z,24.1
2023-05-20T07:30:00.260Z,24.9
2023-05-20T07:40:00.296Z,24.9
2023-05-20T07:50:00.273Z,24.6
2023-05-20T08:00:00.251Z,25.1
2023-05-20T08:10:00.247Z,26.7
2023-05-20T08:20:00.261Z,27.0
2023-05-20T08:30:00.986Z,25.9
2023-05-20T08:40:00.259Z,26.2
2023-05-20T08:50:00.262Z,26.5
2023-05-20T09:00:00.274Z,26.7
2023-05-20T09:10:00.318Z,27.5
2023-05-20T09:20:00.267Z,28.5
2023-05-20T09:30:00.276Z,27.9
2023-05-20T09:40:00.286Z,28.0
2023-05-20T09:50:00.291Z,28.4
2023-05-20T10:00:00.258Z,29.4
2023-05-20T10:10:00.263Z,28.6
2023-05-20T10:20:00.292Z,29.2
2023-05-20T10:30:00.389Z,29.0
2023-05-20T10:40:00.257Z,29.7
2023-05-20T10:50:00.285Z,30.3
2023-05-20T11:00:00.264Z,30.4
2023-05-20T11:10:00.265Z,31.2
2023-05-20T11:20:00.289Z,30.7
2023-05-20T11:30:00.264Z,30.8
2023-05-20T11:40:00.257Z,30.7
2023-05-20T11:50:00.281Z,30.3
2023-05-20T12:00:00.280Z,30.6
2023-05-20T12:10:00.282Z,30.0
2023-05-20T12:20:00.280Z,30.1
2023-05-20T12:30:00.323Z,30.1
2023-05-20T12:40:00.283Z,29.3
2023-05-20T12:50:00.296Z,29.2
2023-05-20T13:00:00.260Z,28.9
2023-05-20T13:10:00.255Z,28.6
2023-05-20T13:20:00.280Z,28.6
2023-05-20T13:30:00.295Z,28.5
2023-05-20T13:40:00.311Z,27.8
2023-05-20T13:50:02.812Z,27.7
2023-05-20T14:00:00.312Z,28.0
2023-05-20T14:10:00.290Z,27.3
2023-05-20T14:20:00.300Z,27.4
2023-05-20T14:30:00.363Z,27.6
2023-05-20T14:40:00.277Z,27.5
2023-05-20T14:50:00.252Z,27.3
2023-05-20T15:00:00.296Z,27.2
2023-05-20T15:10:00.536Z,26.7
2023-05-20T15:20:00.281Z,26.9
2023-05-20T15:30:00.272Z,26.4
2023-05-20T15:40:00.275Z,26.5
2023-05-20T15:50:00.288Z,26.4
2023-05-20T16:00:00.371Z,26.3
2023-05-20T16:10:00.388Z,26.0
2023-05-20T16:20:00.486Z,25.7
2023-05-20T16:30:00.437Z,25.4
2023-05-20T16:40:00.273Z,25.0
2023-05-20T16:50:00.296Z,24.5
2023-05-20T17:00:00.268Z,24.0
2023-05-20T17:10:00.272Z,23.5
2023-05-20T17:20:00.252Z,23.0
2023-05-20T17:30:00.358Z,22.5
2023-05-20T17:40:00.261Z,21.8
2023-05-20T17:50:00.236Z,20.9
2023-05-20T18:00:00.274Z,20.1
2023-05-20T18:10:00.322Z,19.5
2023-05-20T18:20:00.283Z,19.0
2023-05-20T18:30:00.249Z,18.5
2023-05-20T18:40:00.348Z,18.3
2023-05-20T18:50:00.274Z,18.3
2023-05-20T19:00:00.268Z,18.1
2023-05-20T19:10:00.257Z,18.1
2023-05-20T19:20:00.290Z,17.8
2023-05-20T19:30:00.251Z,17.7
2023-05-20T19:40:00.271Z,17.6
2023-05-20T19:50:00.264Z,17.6
2023-05-20T20:00:00.248Z,17.6
2023-05-20T20:10:00.249Z,17.6
2023-05-20T20:20:00.243Z,17.6
2023-05-20T20:30:00.319Z,17.4
2023-05-20T20:40:00.264Z,17.2
2023-05-20T20:50:00.275Z,17.1
2023-05-20T21:00:00.321Z,16.9
2023-05-20T21:10:00.303Z,16.8
2023-05-20T21:20:00.258Z,16.9
2023-05-20T21:30:00.270Z,17.2
2023-05-20T21:40:00.261Z,17.7
2023-05-20T21:50:00.259Z,18.0
2023-05-20T22:00:00.332Z,18.1
2023-05-20T22:10:00.294Z,18.2
2023-05-20T22:20:00.262Z,18.1
2023-05-20T22:30:00.256Z,18.0
2023-05-20T22:40:00.247Z,18.4
2023-05-20T22:50:00.266Z,18.5
2023-05-20T23:00:00.338Z,18.3
2023-05-20T23:10:00.254Z,18.0
2023-05-20T23:20:00.259Z,17.9
2023-05-20T23:30:00.276Z,17.8
2023-05-20T23:40:00.249Z,17.8
2023-05-20T23:50:00.267Z,17.8
